sensor_id;sensor_type;location;lat;lon;timestamp;P1;durP1;ratioP1;P2;durP2;ratioP2
40591;SDS011;26301;42.832;23.918;2023-12-07T00:01:15;5.97;;;3.73;;
40591;SDS011;26301;42.832;23.918;2023-12-07T00:03:41;6.13;;;3.87;;
40591;SDS011;26301;42.832;23.918;2023-12-07T00:06:06;10.00;;;4.03;;
40591;SDS011;26301;42.832;23.918;2023-12-07T00:08:32;7.23;;;4.27;;
40591;SDS011;26301;42.832;23.918;2023-12-07T00:10:57;7.10;;;3.43;;
40591;SDS011;26301;42.832;23.918;2023-12-07T00:13:23;7.23;;;3.77;;
40591;SDS011;26301;42.832;23.918;2023-12-07T00:15:49;6.00;;;3.40;;
40591;SDS011;26301;42.832;23.918;2023-12-07T00:18:15;6.10;;;3.90;;
40591;SDS011;26301;42.832;23.918;2023-12-07T00:20:41;6.10;;;3.90;;
40591;SDS011;26301;42.832;23.918;2023-12-07T00:23:06;6.20;;;4.20;;
40591;SDS011;26301;42.832;23.918;2023-12-07T00:25:32;7.20;;;4.40;;
40591;SDS011;26301;42.832;23.918;2023-12-07T00:27:58;7.50;;;4.70;;
40591;SDS011;26301;42.832;23.918;2023-12-07T00:30:24;7.93;;;4.80;;
40591;SDS011;26301;42.832;23.918;2023-12-07T00:32:50;8.87;;;5.40;;
40591;SDS011;26301;42.832;23.918;2023-12-07T00:35:16;8.47;;;5.60;;
40591;SDS011;26301;42.832;23.918;2023-12-07T00:37:43;9.90;;;6.57;;
40591;SDS011;26301;42.832;23.918;2023-12-07T00:40:09;13.93;;;8.17;;
40591;SDS011;26301;42.832;23.918;2023-12-07T00:42:36;13.37;;;8.30;;
40591;SDS011;26301;42.832;23.918;2023-12-07T00:45:03;12.23;;;8.17;;
40591;SDS011;26301;42.832;23.918;2023-12-07T00:47:29;9.53;;;6.67;;
40591;SDS011;26301;42.832;23.918;2023-12-07T00:49:54;11.30;;;7.10;;
40591;SDS011;26301;42.832;23.918;2023-12-07T00:52:20;14.33;;;8.17;;
40591;SDS011;26301;42.832;23.918;2023-12-07T00:54:45;10.73;;;7.17;;
40591;SDS011;26301;42.832;23.918;2023-12-07T00:57:11;9.40;;;6.97;;
40591;SDS011;26301;42.832;23.918;2023-12-07T00:59:37;11.37;;;6.87;;
40591;SDS011;26301;42.832;23.918;2023-12-07T01:02:03;7.00;;;5.00;;
40591;SDS011;26301;42.832;23.918;2023-12-07T01:04:30;7.20;;;4.80;;
40591;SDS011;26301;42.832;23.918;2023-12-07T01:06:56;9.93;;;5.20;;
40591;SDS011;26301;42.832;23.918;2023-12-07T01:09:22;6.33;;;4.17;;
40591;SDS011;26301;42.832;23.918;2023-12-07T01:11:48;9.67;;;6.07;;
40591;SDS011;26301;42.832;23.918;2023-12-07T01:14:15;11.30;;;7.17;;
40591;SDS011;26301;42.832;23.918;2023-12-07T01:16:42;9.40;;;6.43;;
40591;SDS011;26301;42.832;23.918;2023-12-07T01:19:07;9.50;;;6.47;;
40591;SDS011;26301;42.832;23.918;2023-12-07T01:21:33;9.63;;;5.70;;
40591;SDS011;26301;42.832;23.918;2023-12-07T01:23:59;8.47;;;5.20;;
40591;SDS011;26301;42.832;23.918;2023-12-07T01:26:25;11.93;;;6.93;;
40591;SDS011;26301;42.832;23.918;2023-12-07T01:28:51;8.53;;;5.53;;
40591;SDS011;26301;42.832;23.918;2023-12-07T01:31:16;8.67;;;5.83;;
40591;SDS011;26301;42.832;23.918;2023-12-07T01:33:43;8.17;;;5.60;;
40591;SDS011;26301;42.832;23.918;2023-12-07T01:36:10;9.83;;;5.03;;
40591;SDS011;26301;42.832;23.918;2023-12-07T01:38:36;5.93;;;4.10;;
40591;SDS011;26301;42.832;23.918;2023-12-07T01:41:01;6.00;;;3.40;;
40591;SDS011;26301;42.832;23.918;2023-12-07T01:43:27;7.30;;;3.10;;
40591;SDS011;26301;42.832;23.918;2023-12-07T01:45:54;5.30;;;3.40;;
40591;SDS011;26301;42.832;23.918;2023-12-07T01:48:22;4.53;;;3.50;;
40591;SDS011;26301;42.832;23.918;2023-12-07T01:50:49;9.93;;;4.47;;
40591;SDS011;26301;42.832;23.918;2023-12-07T01:53:16;7.97;;;4.03;;
40591;SDS011;26301;42.832;23.918;2023-12-07T01:55:42;9.07;;;6.20;;
40591;SDS011;26301;42.832;23.918;2023-12-07T01:58:08;7.10;;;5.00;;
40591;SDS011;26301;42.832;23.918;2023-12-07T02:00:34;8.17;;;5.13;;
40591;SDS011;26301;42.832;23.918;2023-12-07T02:03:02;4.90;;;3.10;;
40591;SDS011;26301;42.832;23.918;2023-12-07T02:05:30;5.47;;;3.87;;
40591;SDS011;26301;42.832;23.918;2023-12-07T02:07:57;5.63;;;4.73;;
40591;SDS011;26301;42.832;23.918;2023-12-07T02:10:23;7.27;;;5.00;;
40591;SDS011;26301;42.832;23.918;2023-12-07T02:12:50;7.43;;;4.53;;
40591;SDS011;26301;42.832;23.918;2023-12-07T02:15:18;5.70;;;4.37;;
40591;SDS011;26301;42.832;23.918;2023-12-07T02:23:23;3.53;;;2.23;;
40591;SDS011;26301;42.832;23.918;2023-12-07T02:25:53;4.57;;;2.10;;
40591;SDS011;26301;42.832;23.918;2023-12-07T02:28:20;3.27;;;1.90;;
40591;SDS011;26301;42.832;23.918;2023-12-07T02:30:46;3.23;;;2.30;;
40591;SDS011;26301;42.832;23.918;2023-12-07T02:33:11;5.30;;;3.50;;
40591;SDS011;26301;42.832;23.918;2023-12-07T02:35:37;6.07;;;3.67;;
40591;SDS011;26301;42.832;23.918;2023-12-07T02:38:05;5.73;;;3.73;;
40591;SDS011;26301;42.832;23.918;2023-12-07T02:40:32;5.50;;;2.90;;
40591;SDS011;26301;42.832;23.918;2023-12-07T02:42:59;4.70;;;3.00;;
40591;SDS011;26301;42.832;23.918;2023-12-07T02:45:25;5.70;;;3.27;;
40591;SDS011;26301;42.832;23.918;2023-12-07T02:47:52;5.77;;;2.87;;
40591;SDS011;26301;42.832;23.918;2023-12-07T02:50:20;6.07;;;3.27;;
40591;SDS011;26301;42.832;23.918;2023-12-07T02:52:46;10.30;;;5.73;;
40591;SDS011;26301;42.832;23.918;2023-12-07T02:55:12;62.93;;;10.43;;
40591;SDS011;26301;42.832;23.918;2023-12-07T02:57:37;151.23;;;8.80;;
40591;SDS011;26301;42.832;23.918;2023-12-07T03:00:04;212.73;;;11.33;;
40591;SDS011;26301;42.832;23.918;2023-12-07T03:02:34;313.10;;;16.93;;
40591;SDS011;26301;42.832;23.918;2023-12-07T03:05:00;367.90;;;21.63;;
40591;SDS011;26301;42.832;23.918;2023-12-07T03:07:26;322.43;;;24.87;;
40591;SDS011;26301;42.832;23.918;2023-12-07T03:09:52;242.20;;;21.37;;
40591;SDS011;26301;42.832;23.918;2023-12-07T03:12:18;225.27;;;20.87;;
40591;SDS011;26301;42.832;23.918;2023-12-07T03:14:43;246.00;;;29.67;;
40591;SDS011;26301;42.832;23.918;2023-12-07T03:17:09;286.60;;;28.87;;
40591;SDS011;26301;42.832;23.918;2023-12-07T03:19:38;183.03;;;24.10;;
40591;SDS011;26301;42.832;23.918;2023-12-07T03:22:05;326.90;;;26.40;;
40591;SDS011;26301;42.832;23.918;2023-12-07T03:24:34;294.43;;;25.87;;
40591;SDS011;26301;42.832;23.918;2023-12-07T03:27:01;256.30;;;22.87;;
40591;SDS011;26301;42.832;23.918;2023-12-07T03:29:28;197.90;;;21.80;;
40591;SDS011;26301;42.832;23.918;2023-12-07T03:31:53;307.60;;;23.37;;
40591;SDS011;26301;42.832;23.918;2023-12-07T03:34:19;238.43;;;21.30;;
40591;SDS011;26301;42.832;23.918;2023-12-07T03:36:46;184.60;;;21.30;;
40591;SDS011;26301;42.832;23.918;2023-12-07T03:39:15;166.70;;;19.03;;
40591;SDS011;26301;42.832;23.918;2023-12-07T03:41:43;232.80;;;21.70;;
40591;SDS011;26301;42.832;23.918;2023-12-07T03:44:09;122.17;;;19.30;;
40591;SDS011;26301;42.832;23.918;2023-12-07T03:46:35;125.37;;;18.20;;
40591;SDS011;26301;42.832;23.918;2023-12-07T03:49:01;50.87;;;16.53;;
40591;SDS011;26301;42.832;23.918;2023-12-07T03:51:27;42.33;;;16.07;;
40591;SDS011;26301;42.832;23.918;2023-12-07T03:53:53;24.53;;;14.50;;
40591;SDS011;26301;42.832;23.918;2023-12-07T03:56:26;24.20;;;14.30;;
40591;SDS011;26301;42.832;23.918;2023-12-07T03:58:53;27.43;;;14.53;;
40591;SDS011;26301;42.832;23.918;2023-12-07T04:01:23;23.77;;;14.33;;
40591;SDS011;26301;42.832;23.918;2023-12-07T04:03:53;25.13;;;15.13;;
40591;SDS011;26301;42.832;23.918;2023-12-07T04:06:23;53.83;;;16.47;;
40591;SDS011;26301;42.832;23.918;2023-12-07T04:08:49;53.30;;;17.40;;
40591;SDS011;26301;42.832;23.918;2023-12-07T04:11:16;46.30;;;18.00;;
40591;SDS011;26301;42.832;23.918;2023-12-07T04:13:42;121.37;;;19.47;;
40591;SDS011;26301;42.832;23.918;2023-12-07T04:16:08;134.33;;;19.53;;
40591;SDS011;26301;42.832;23.918;2023-12-07T04:18:35;124.93;;;21.27;;
40591;SDS011;26301;42.832;23.918;2023-12-07T04:21:01;268.43;;;25.80;;
40591;SDS011;26301;42.832;23.918;2023-12-07T04:23:26;392.63;;;28.73;;
40591;SDS011;26301;42.832;23.918;2023-12-07T04:25:52;420.53;;;31.07;;
40591;SDS011;26301;42.832;23.918;2023-12-07T04:28:18;408.47;;;30.40;;
40591;SDS011;26301;42.832;23.918;2023-12-07T04:30:43;272.53;;;25.97;;
40591;SDS011;26301;42.832;23.918;2023-12-07T04:33:09;239.20;;;26.50;;
40591;SDS011;26301;42.832;23.918;2023-12-07T04:35:35;395.47;;;31.07;;
40591;SDS011;26301;42.832;23.918;2023-12-07T04:38:01;209.93;;;22.57;;
40591;SDS011;26301;42.832;23.918;2023-12-07T04:40:27;284.40;;;24.73;;
40591;SDS011;26301;42.832;23.918;2023-12-07T04:42:53;145.23;;;23.40;;
40591;SDS011;26301;42.832;23.918;2023-12-07T04:45:18;220.63;;;23.03;;
40591;SDS011;26301;42.832;23.918;2023-12-07T04:47:45;185.47;;;20.80;;
40591;SDS011;26301;42.832;23.918;2023-12-07T04:50:11;140.23;;;20.77;;
40591;SDS011;26301;42.832;23.918;2023-12-07T04:52:37;204.63;;;23.70;;
40591;SDS011;26301;42.832;23.918;2023-12-07T04:55:04;77.63;;;20.13;;
40591;SDS011;26301;42.832;23.918;2023-12-07T04:57:33;374.67;;;29.80;;
40591;SDS011;26301;42.832;23.918;2023-12-07T04:59:59;371.90;;;27.23;;
40591;SDS011;26301;42.832;23.918;2023-12-07T05:02:25;243.70;;;25.27;;
40591;SDS011;26301;42.832;23.918;2023-12-07T05:04:52;263.83;;;24.77;;
40591;SDS011;26301;42.832;23.918;2023-12-07T05:07:19;360.63;;;27.93;;
40591;SDS011;26301;42.832;23.918;2023-12-07T05:09:46;258.23;;;25.23;;
40591;SDS011;26301;42.832;23.918;2023-12-07T05:12:12;206.23;;;22.57;;
40591;SDS011;26301;42.832;23.918;2023-12-07T05:14:37;257.90;;;23.20;;
40591;SDS011;26301;42.832;23.918;2023-12-07T05:17:03;131.60;;;18.70;;
40591;SDS011;26301;42.832;23.918;2023-12-07T05:19:30;261.20;;;20.13;;
40591;SDS011;26301;42.832;23.918;2023-12-07T05:21:55;144.80;;;15.93;;
40591;SDS011;26301;42.832;23.918;2023-12-07T05:24:21;205.97;;;19.27;;
40591;SDS011;26301;42.832;23.918;2023-12-07T05:26:47;242.33;;;17.53;;
40591;SDS011;26301;42.832;23.918;2023-12-07T05:29:14;191.33;;;17.30;;
40591;SDS011;26301;42.832;23.918;2023-12-07T05:31:40;222.30;;;16.57;;
40591;SDS011;26301;42.832;23.918;2023-12-07T05:34:09;239.20;;;18.10;;
40591;SDS011;26301;42.832;23.918;2023-12-07T05:36:34;134.30;;;16.27;;
40591;SDS011;26301;42.832;23.918;2023-12-07T05:39:00;135.80;;;17.60;;
40591;SDS011;26301;42.832;23.918;2023-12-07T05:41:26;143.10;;;17.47;;
40591;SDS011;26301;42.832;23.918;2023-12-07T05:43:52;186.10;;;19.77;;
40591;SDS011;26301;42.832;23.918;2023-12-07T05:46:18;198.77;;;18.43;;
40591;SDS011;26301;42.832;23.918;2023-12-07T05:48:44;194.40;;;20.30;;
40591;SDS011;26301;42.832;23.918;2023-12-07T05:51:17;189.53;;;19.30;;
40591;SDS011;26301;42.832;23.918;2023-12-07T05:53:43;96.07;;;16.20;;
40591;SDS011;26301;42.832;23.918;2023-12-07T05:56:10;151.40;;;20.67;;
40591;SDS011;26301;42.832;23.918;2023-12-07T05:58:36;196.03;;;18.00;;
40591;SDS011;26301;42.832;23.918;2023-12-07T06:01:02;136.40;;;17.23;;
40591;SDS011;26301;42.832;23.918;2023-12-07T06:03:28;133.40;;;18.23;;
40591;SDS011;26301;42.832;23.918;2023-12-07T06:05:54;178.90;;;17.10;;
40591;SDS011;26301;42.832;23.918;2023-12-07T06:08:20;205.53;;;17.60;;
40591;SDS011;26301;42.832;23.918;2023-12-07T06:10:47;120.43;;;15.37;;
40591;SDS011;26301;42.832;23.918;2023-12-07T06:13:12;75.50;;;14.73;;
40591;SDS011;26301;42.832;23.918;2023-12-07T06:15:38;113.70;;;14.40;;
40591;SDS011;26301;42.832;23.918;2023-12-07T06:18:04;111.53;;;15.57;;
40591;SDS011;26301;42.832;23.918;2023-12-07T06:20:30;71.13;;;13.97;;
40591;SDS011;26301;42.832;23.918;2023-12-07T06:22:56;113.50;;;16.70;;
40591;SDS011;26301;42.832;23.918;2023-12-07T06:25:23;87.87;;;16.57;;
40591;SDS011;26301;42.832;23.918;2023-12-07T06:27:49;74.90;;;15.20;;
40591;SDS011;26301;42.832;23.918;2023-12-07T06:30:15;99.03;;;16.67;;
40591;SDS011;26301;42.832;23.918;2023-12-07T06:32:41;84.90;;;18.63;;
40591;SDS011;26301;42.832;23.918;2023-12-07T06:35:07;73.47;;;16.53;;
40591;SDS011;26301;42.832;23.918;2023-12-07T06:37:33;52.73;;;17.23;;
40591;SDS011;26301;42.832;23.918;2023-12-07T06:39:59;34.63;;;17.03;;
40591;SDS011;26301;42.832;23.918;2023-12-07T06:42:25;103.67;;;19.60;;
40591;SDS011;26301;42.832;23.918;2023-12-07T06:44:52;74.50;;;16.20;;
40591;SDS011;26301;42.832;23.918;2023-12-07T06:47:18;112.43;;;17.10;;
40591;SDS011;26301;42.832;23.918;2023-12-07T06:49:44;60.47;;;18.90;;
40591;SDS011;26301;42.832;23.918;2023-12-07T06:52:12;65.40;;;18.80;;
40591;SDS011;26301;42.832;23.918;2023-12-07T06:54:38;58.63;;;18.40;;
40591;SDS011;26301;42.832;23.918;2023-12-07T06:57:05;69.40;;;17.63;;
40591;SDS011;26301;42.832;23.918;2023-12-07T06:59:32;112.47;;;20.90;;
40591;SDS011;26301;42.832;23.918;2023-12-07T07:01:58;92.90;;;19.83;;
40591;SDS011;26301;42.832;23.918;2023-12-07T07:04:24;92.10;;;16.40;;
40591;SDS011;26301;42.832;23.918;2023-12-07T07:06:50;90.90;;;16.30;;
40591;SDS011;26301;42.832;23.918;2023-12-07T07:09:16;102.30;;;17.80;;
40591;SDS011;26301;42.832;23.918;2023-12-07T07:11:47;139.27;;;21.90;;
40591;SDS011;26301;42.832;23.918;2023-12-07T07:14:13;120.87;;;18.93;;
40591;SDS011;26301;42.832;23.918;2023-12-07T07:16:39;113.90;;;16.80;;
40591;SDS011;26301;42.832;23.918;2023-12-07T07:19:04;114.33;;;14.77;;
40591;SDS011;26301;42.832;23.918;2023-12-07T07:21:31;206.67;;;16.40;;
40591;SDS011;26301;42.832;23.918;2023-12-07T07:23:56;166.60;;;25.30;;
40591;SDS011;26301;42.832;23.918;2023-12-07T07:26:22;62.67;;;15.97;;
40591;SDS011;26301;42.832;23.918;2023-12-07T07:28:50;158.17;;;22.40;;
40591;SDS011;26301;42.832;23.918;2023-12-07T07:31:16;56.83;;;14.00;;
40591;SDS011;26301;42.832;23.918;2023-12-07T07:33:43;100.57;;;16.37;;
40591;SDS011;26301;42.832;23.918;2023-12-07T07:36:09;99.43;;;15.27;;
40591;SDS011;26301;42.832;23.918;2023-12-07T07:38:36;150.30;;;15.47;;
40591;SDS011;26301;42.832;23.918;2023-12-07T07:41:02;74.07;;;13.33;;
40591;SDS011;26301;42.832;23.918;2023-12-07T07:43:28;72.90;;;14.93;;
40591;SDS011;26301;42.832;23.918;2023-12-07T07:45:54;77.70;;;25.10;;
40591;SDS011;26301;42.832;23.918;2023-12-07T07:48:20;52.00;;;16.47;;
40591;SDS011;26301;42.832;23.918;2023-12-07T07:50:45;54.47;;;14.07;;
40591;SDS011;26301;42.832;23.918;2023-12-07T07:53:11;66.70;;;16.73;;
40591;SDS011;26301;42.832;23.918;2023-12-07T07:55:37;86.13;;;16.00;;
40591;SDS011;26301;42.832;23.918;2023-12-07T07:58:03;67.60;;;16.23;;
40591;SDS011;26301;42.832;23.918;2023-12-07T08:00:28;70.90;;;14.27;;
40591;SDS011;26301;42.832;23.918;2023-12-07T08:02:55;46.87;;;14.10;;
40591;SDS011;26301;42.832;23.918;2023-12-07T08:05:21;69.03;;;18.77;;
40591;SDS011;26301;42.832;23.918;2023-12-07T08:07:47;73.10;;;14.60;;
40591;SDS011;26301;42.832;23.918;2023-12-07T08:10:13;64.10;;;17.57;;
40591;SDS011;26301;42.832;23.918;2023-12-07T08:12:39;113.43;;;14.77;;
40591;SDS011;26301;42.832;23.918;2023-12-07T08:15:05;91.50;;;13.53;;
40591;SDS011;26301;42.832;23.918;2023-12-07T08:17:42;71.83;;;11.93;;
40591;SDS011;26301;42.832;23.918;2023-12-07T08:20:08;69.15;;;11.20;;
40591;SDS011;26301;42.832;23.918;2023-12-07T08:22:38;69.07;;;14.47;;
40591;SDS011;26301;42.832;23.918;2023-12-07T08:25:04;89.10;;;13.43;;
40591;SDS011;26301;42.832;23.918;2023-12-07T08:27:33;113.17;;;24.77;;
40591;SDS011;26301;42.832;23.918;2023-12-07T08:29:59;72.70;;;23.23;;
40591;SDS011;26301;42.832;23.918;2023-12-07T08:32:26;90.70;;;21.83;;
40591;SDS011;26301;42.832;23.918;2023-12-07T08:34:52;62.43;;;17.60;;
40591;SDS011;26301;42.832;23.918;2023-12-07T08:37:18;97.70;;;18.67;;
40591;SDS011;26301;42.832;23.918;2023-12-07T08:39:44;95.57;;;17.70;;
40591;SDS011;26301;42.832;23.918;2023-12-07T08:42:10;83.83;;;17.43;;
40591;SDS011;26301;42.832;23.918;2023-12-07T08:44:37;148.67;;;33.23;;
40591;SDS011;26301;42.832;23.918;2023-12-07T08:47:03;234.33;;;24.83;;
40591;SDS011;26301;42.832;23.918;2023-12-07T08:49:29;252.57;;;19.50;;
40591;SDS011;26301;42.832;23.918;2023-12-07T08:51:54;340.03;;;25.30;;
40591;SDS011;26301;42.832;23.918;2023-12-07T08:54:21;366.67;;;27.57;;
40591;SDS011;26301;42.832;23.918;2023-12-07T08:56:47;421.63;;;30.43;;
40591;SDS011;26301;42.832;23.918;2023-12-07T08:59:13;475.77;;;29.60;;
40591;SDS011;26301;42.832;23.918;2023-12-07T09:01:39;400.23;;;25.83;;
40591;SDS011;26301;42.832;23.918;2023-12-07T09:04:05;425.20;;;27.70;;
40591;SDS011;26301;42.832;23.918;2023-12-07T09:06:32;368.80;;;24.67;;
40591;SDS011;26301;42.832;23.918;2023-12-07T09:08:58;312.60;;;24.00;;
40591;SDS011;26301;42.832;23.918;2023-12-07T09:11:25;238.80;;;20.37;;
40591;SDS011;26301;42.832;23.918;2023-12-07T09:13:50;184.77;;;17.93;;
40591;SDS011;26301;42.832;23.918;2023-12-07T09:16:16;85.03;;;14.60;;
40591;SDS011;26301;42.832;23.918;2023-12-07T09:18:42;131.77;;;16.67;;
40591;SDS011;26301;42.832;23.918;2023-12-07T09:21:10;105.27;;;17.07;;
40591;SDS011;26301;42.832;23.918;2023-12-07T09:23:36;31.93;;;15.23;;
40591;SDS011;26301;42.832;23.918;2023-12-07T09:26:02;30.67;;;14.97;;
40591;SDS011;26301;42.832;23.918;2023-12-07T09:28:28;26.17;;;13.40;;
40591;SDS011;26301;42.832;23.918;2023-12-07T09:30:54;46.23;;;19.77;;
40591;SDS011;26301;42.832;23.918;2023-12-07T09:33:20;41.70;;;18.75;;
40591;SDS011;26301;42.832;23.918;2023-12-07T09:35:46;52.13;;;14.20;;
40591;SDS011;26301;42.832;23.918;2023-12-07T09:38:12;47.57;;;14.80;;
40591;SDS011;26301;42.832;23.918;2023-12-07T09:40:38;29.40;;;14.23;;
40591;SDS011;26301;42.832;23.918;2023-12-07T09:43:04;48.20;;;15.47;;
40591;SDS011;26301;42.832;23.918;2023-12-07T09:45:29;57.27;;;16.30;;
40591;SDS011;26301;42.832;23.918;2023-12-07T09:47:55;45.70;;;17.00;;
40591;SDS011;26301;42.832;23.918;2023-12-07T09:50:23;42.97;;;18.43;;
40591;SDS011;26301;42.832;23.918;2023-12-07T09:52:50;44.53;;;16.80;;
40591;SDS011;26301;42.832;23.918;2023-12-07T09:55:17;29.17;;;15.05;;
40591;SDS011;26301;42.832;23.918;2023-12-07T09:57:44;23.37;;;12.33;;
40591;SDS011;26301;42.832;23.918;2023-12-07T10:00:11;21.97;;;12.33;;
40591;SDS011;26301;42.832;23.918;2023-12-07T10:02:40;23.20;;;12.83;;
40591;SDS011;26301;42.832;23.918;2023-12-07T10:05:08;19.00;;;11.40;;
40591;SDS011;26301;42.832;23.918;2023-12-07T10:07:36;19.83;;;12.13;;
40591;SDS011;26301;42.832;23.918;2023-12-07T10:10:06;22.67;;;12.37;;
40591;SDS011;26301;42.832;23.918;2023-12-07T10:12:33;25.93;;;13.47;;
40591;SDS011;26301;42.832;23.918;2023-12-07T10:15:00;72.23;;;17.87;;
40591;SDS011;26301;42.832;23.918;2023-12-07T10:20:22;112.23;;;21.13;;
40591;SDS011;26301;42.832;23.918;2023-12-07T10:22:49;135.57;;;22.63;;
40591;SDS011;26301;42.832;23.918;2023-12-07T10:25:37;93.17;;;16.20;;
40591;SDS011;26301;42.832;23.918;2023-12-07T10:28:04;113.95;;;16.25;;
40591;SDS011;26301;42.832;23.918;2023-12-07T10:30:32;219.00;;;18.93;;
40591;SDS011;26301;42.832;23.918;2023-12-07T10:32:59;170.07;;;16.57;;
40591;SDS011;26301;42.832;23.918;2023-12-07T10:35:25;247.23;;;18.70;;
40591;SDS011;26301;42.832;23.918;2023-12-07T10:37:51;193.47;;;16.97;;
40591;SDS011;26301;42.832;23.918;2023-12-07T10:40:16;167.27;;;19.13;;
40591;SDS011;26301;42.832;23.918;2023-12-07T10:42:47;64.90;;;14.40;;
40591;SDS011;26301;42.832;23.918;2023-12-07T10:45:14;47.73;;;13.87;;
40591;SDS011;26301;42.832;23.918;2023-12-07T10:47:40;96.93;;;17.00;;
40591;SDS011;26301;42.832;23.918;2023-12-07T10:50:09;145.47;;;18.47;;
40591;SDS011;26301;42.832;23.918;2023-12-07T10:52:45;130.93;;;16.70;;
40591;SDS011;26301;42.832;23.918;2023-12-07T10:55:20;66.63;;;15.80;;
40591;SDS011;26301;42.832;23.918;2023-12-07T10:57:52;58.67;;;13.70;;
40591;SDS011;26301;42.832;23.918;2023-12-07T11:00:19;37.97;;;13.00;;
40591;SDS011;26301;42.832;23.918;2023-12-07T11:02:49;27.63;;;11.20;;
40591;SDS011;26301;42.832;23.918;2023-12-07T11:05:17;53.63;;;12.10;;
40591;SDS011;26301;42.832;23.918;2023-12-07T11:10:30;45.70;;;10.60;;
40591;SDS011;26301;42.832;23.918;2023-12-07T11:13:17;33.97;;;10.73;;
40591;SDS011;26301;42.832;23.918;2023-12-07T11:15:55;34.00;;;11.57;;
40591;SDS011;26301;42.832;23.918;2023-12-07T11:18:21;80.43;;;13.17;;
40591;SDS011;26301;42.832;23.918;2023-12-07T11:20:50;131.97;;;12.80;;
40591;SDS011;26301;42.832;23.918;2023-12-07T11:23:18;76.80;;;13.17;;
40591;SDS011;26301;42.832;23.918;2023-12-07T11:25:44;87.33;;;12.90;;
40591;SDS011;26301;42.832;23.918;2023-12-07T11:28:11;76.80;;;12.63;;
40591;SDS011;26301;42.832;23.918;2023-12-07T11:30:37;84.53;;;11.83;;
40591;SDS011;26301;42.832;23.918;2023-12-07T11:33:06;175.57;;;14.30;;
40591;SDS011;26301;42.832;23.918;2023-12-07T11:35:32;198.90;;;14.83;;
40591;SDS011;26301;42.832;23.918;2023-12-07T11:40:29;155.97;;;12.67;;
40591;SDS011;26301;42.832;23.918;2023-12-07T11:42:56;81.73;;;10.67;;
40591;SDS011;26301;42.832;23.918;2023-12-07T11:48:14;61.10;;;9.63;;
40591;SDS011;26301;42.832;23.918;2023-12-07T11:50:55;51.30;;;10.30;;
40591;SDS011;26301;42.832;23.918;2023-12-07T11:53:25;66.77;;;11.63;;
40591;SDS011;26301;42.832;23.918;2023-12-07T11:55:54;40.63;;;10.32;;
40591;SDS011;26301;42.832;23.918;2023-12-07T11:58:20;54.00;;;11.27;;
40591;SDS011;26301;42.832;23.918;2023-12-07T12:00:46;37.27;;;12.13;;
40591;SDS011;26301;42.832;23.918;2023-12-07T12:03:13;76.67;;;12.27;;
40591;SDS011;26301;42.832;23.918;2023-12-07T12:05:40;49.53;;;13.23;;
40591;SDS011;26301;42.832;23.918;2023-12-07T12:08:06;166.93;;;16.40;;
40591;SDS011;26301;42.832;23.918;2023-12-07T12:10:32;276.83;;;19.37;;
40591;SDS011;26301;42.832;23.918;2023-12-07T12:13:01;115.77;;;14.27;;
40591;SDS011;26301;42.832;23.918;2023-12-07T12:15:30;224.88;;;16.70;;
40591;SDS011;26301;42.832;23.918;2023-12-07T12:17:57;139.23;;;14.80;;
40591;SDS011;26301;42.832;23.918;2023-12-07T12:20:26;173.37;;;14.20;;
40591;SDS011;26301;42.832;23.918;2023-12-07T12:22:52;114.57;;;15.53;;
40591;SDS011;26301;42.832;23.918;2023-12-07T12:25:22;234.33;;;18.37;;
40591;SDS011;26301;42.832;23.918;2023-12-07T12:28:01;279.13;;;18.27;;
40591;SDS011;26301;42.832;23.918;2023-12-07T12:30:28;99.17;;;13.57;;
40591;SDS011;26301;42.832;23.918;2023-12-07T12:32:55;103.70;;;14.10;;
40591;SDS011;26301;42.832;23.918;2023-12-07T12:35:22;95.17;;;14.17;;
40591;SDS011;26301;42.832;23.918;2023-12-07T12:37:48;116.10;;;15.57;;
40591;SDS011;26301;42.832;23.918;2023-12-07T12:40:16;67.33;;;11.73;;
40591;SDS011;26301;42.832;23.918;2023-12-07T12:42:46;70.83;;;11.03;;
40591;SDS011;26301;42.832;23.918;2023-12-07T12:45:14;48.43;;;11.23;;
40591;SDS011;26301;42.832;23.918;2023-12-07T12:47:41;42.00;;;9.63;;
40591;SDS011;26301;42.832;23.918;2023-12-07T12:50:11;114.23;;;10.33;;
40591;SDS011;26301;42.832;23.918;2023-12-07T12:52:39;36.97;;;8.23;;
40591;SDS011;26301;42.832;23.918;2023-12-07T12:55:14;31.43;;;7.87;;
40591;SDS011;26301;42.832;23.918;2023-12-07T12:57:40;18.63;;;6.83;;
40591;SDS011;26301;42.832;23.918;2023-12-07T13:00:06;13.53;;;6.87;;
40591;SDS011;26301;42.832;23.918;2023-12-07T13:02:32;9.50;;;5.30;;
40591;SDS011;26301;42.832;23.918;2023-12-07T13:04:58;10.30;;;5.17;;
40591;SDS011;26301;42.832;23.918;2023-12-07T13:07:24;7.90;;;4.97;;
40591;SDS011;26301;42.832;23.918;2023-12-07T13:09:51;10.53;;;5.13;;
40591;SDS011;26301;42.832;23.918;2023-12-07T13:12:17;7.60;;;4.57;;
40591;SDS011;26301;42.832;23.918;2023-12-07T13:14:43;8.17;;;4.50;;
40591;SDS011;26301;42.832;23.918;2023-12-07T13:17:09;6.93;;;4.50;;
40591;SDS011;26301;42.832;23.918;2023-12-07T13:19:34;10.50;;;5.00;;
40591;SDS011;26301;42.832;23.918;2023-12-07T13:22:00;6.87;;;4.00;;
40591;SDS011;26301;42.832;23.918;2023-12-07T13:24:28;7.37;;;4.30;;
40591;SDS011;26301;42.832;23.918;2023-12-07T13:26:54;4.80;;;3.30;;
40591;SDS011;26301;42.832;23.918;2023-12-07T13:29:19;6.50;;;3.87;;
40591;SDS011;26301;42.832;23.918;2023-12-07T13:31:46;8.17;;;4.27;;
40591;SDS011;26301;42.832;23.918;2023-12-07T13:34:14;7.40;;;4.47;;
40591;SDS011;26301;42.832;23.918;2023-12-07T13:36:40;6.43;;;4.20;;
40591;SDS011;26301;42.832;23.918;2023-12-07T13:39:06;8.10;;;4.80;;
40591;SDS011;26301;42.832;23.918;2023-12-07T13:41:33;8.70;;;5.00;;
40591;SDS011;26301;42.832;23.918;2023-12-07T13:44:00;7.73;;;4.87;;
40591;SDS011;26301;42.832;23.918;2023-12-07T13:46:26;8.20;;;5.20;;
40591;SDS011;26301;42.832;23.918;2023-12-07T13:48:52;6.17;;;4.50;;
40591;SDS011;26301;42.832;23.918;2023-12-07T13:51:18;6.03;;;3.67;;
40591;SDS011;26301;42.832;23.918;2023-12-07T13:53:45;6.17;;;4.17;;
40591;SDS011;26301;42.832;23.918;2023-12-07T13:56:11;10.33;;;5.33;;
40591;SDS011;26301;42.832;23.918;2023-12-07T13:58:36;9.57;;;6.20;;
40591;SDS011;26301;42.832;23.918;2023-12-07T14:01:04;9.87;;;5.83;;
40591;SDS011;26301;42.832;23.918;2023-12-07T14:03:30;7.23;;;4.50;;
40591;SDS011;26301;42.832;23.918;2023-12-07T14:05:56;7.20;;;4.27;;
40591;SDS011;26301;42.832;23.918;2023-12-07T14:08:22;5.10;;;3.33;;
40591;SDS011;26301;42.832;23.918;2023-12-07T14:10:48;6.90;;;4.57;;
40591;SDS011;26301;42.832;23.918;2023-12-07T14:13:14;4.87;;;3.40;;
40591;SDS011;26301;42.832;23.918;2023-12-07T14:15:39;5.07;;;2.70;;
40591;SDS011;26301;42.832;23.918;2023-12-07T14:18:05;4.60;;;2.43;;
40591;SDS011;26301;42.832;23.918;2023-12-07T14:20:31;4.77;;;3.00;;
40591;SDS011;26301;42.832;23.918;2023-12-07T14:22:58;5.60;;;3.67;;
40591;SDS011;26301;42.832;23.918;2023-12-07T14:25:29;5.07;;;2.83;;